KAKH/AKH METAR and TAF weather

Enter ICAO airport designator
Station Type Date Time Source
KAKH METAR 2018/04/21 20:54 UTC NOAA

KAKH 212054Z AUTO 05003KT 10SM CLR 21/01 A3030 RMK AO2 SLP259 T02110011 56021


Station Type Date Time Source
KAKH Decoded METAR 2018/04/21 20:54 UTC NOAA

GASTONIA MUNICIPAL AIRPORT, NC, United States (KAKH) 35-12N 81-09W 243M
Apr 21, 2018 - 04:54 PM EDT / 2018.04.21 2054 UTC
Wind: from the NE (050 degrees) at 3 MPH (3 KT):0
Visibility: 10 mile(s):0
Sky conditions: clear
Temperature: 70.0 F (21.1 C)
Dew Point: 34.0 F (1.1 C)
Relative Humidity: 26%
Pressure (altimeter): 30.3 in. Hg (1026 hPa)
Pressure tendency: 0.06 inches (2.1 hPa) lower than three hours ago
ob: KAKH 212054Z AUTO 05003KT 10SM CLR 21/01 A3030 RMK AO2 SLP259 T02110011 56021
cycle: 21

Station Type Date Time Source
KAKH TAF UTC NOAA

Error!


Example: see airport list